createdAt,value
2019-05-18T00:04:09.781Z,91.10
2019-05-18T00:09:13.360Z,91.50
2019-05-18T00:14:17.081Z,91.90
2019-05-18T00:19:20.758Z,92.00
2019-05-18T00:24:24.409Z,92.30
2019-05-18T00:29:28.366Z,92.40
2019-05-18T00:34:31.972Z,92.40
2019-05-18T00:39:35.954Z,92.40
2019-05-18T00:44:39.539Z,92.60
2019-05-18T00:49:43.155Z,93.00
2019-05-18T00:54:46.744Z,93.00
2019-05-18T00:59:50.407Z,92.90
2019-05-18T01:04:54.003Z,92.90
2019-05-18T01:09:58.124Z,92.90
2019-05-18T01:15:01.778Z,93.00
2019-05-18T01:20:09.193Z,93.40
2019-05-18T01:25:13.219Z,93.30
2019-05-18T01:30:17.543Z,93.30
2019-05-18T01:35:21.385Z,93.20
2019-05-18T01:40:25.449Z,93.30
2019-05-18T01:45:29.114Z,93.50
2019-05-18T01:50:32.705Z,93.30
2019-05-18T01:55:36.698Z,93.30
2019-05-18T02:00:40.387Z,93.40
2019-05-18T02:05:44.282Z,93.50
2019-05-18T02:10:47.875Z,93.20
2019-05-18T02:15:51.542Z,93.50
2019-05-18T02:20:55.203Z,93.80
2019-05-18T02:25:58.892Z,93.70
2019-05-18T02:31:02.489Z,93.80
2019-05-18T02:36:06.158Z,94.20
2019-05-18T02:41:09.744Z,94.80
2019-05-18T02:46:13.644Z,94.90
2019-05-18T02:51:17.230Z,94.60
2019-05-18T02:56:21.191Z,94.50
2019-05-18T03:01:24.940Z,94.60
2019-05-18T03:06:28.541Z,94.20
2019-05-18T03:11:32.297Z,94.10
2019-05-18T03:16:35.965Z,94.10
2019-05-18T03:21:39.633Z,93.70
2019-05-18T03:26:43.223Z,93.80
2019-05-18T03:31:46.818Z,93.90
2019-05-18T03:36:50.496Z,94.50
2019-05-18T03:41:54.103Z,94.60
2019-05-18T03:46:57.712Z,94.60
2019-05-18T03:52:01.287Z,94.50
2019-05-18T03:57:04.957Z,94.40
2019-05-18T04:02:08.623Z,94.90
2019-05-18T04:07:12.357Z,95.30
2019-05-18T04:12:16.028Z,95.10
2019-05-18T04:17:19.754Z,95.00
2019-05-18T04:22:24.879Z,94.90
2019-05-18T04:27:28.445Z,94.90
2019-05-18T04:32:32.362Z,94.80
2019-05-18T04:37:36.301Z,95.00
2019-05-18T04:42:39.965Z,94.40
2019-05-18T04:47:47.987Z,94.30
2019-05-18T04:52:48.944Z,94.20
2019-05-18T04:57:52.538Z,94.10
2019-05-18T05:02:56.458Z,93.70
2019-05-18T05:08:00.517Z,93.60
2019-05-18T05:13:04.639Z,93.60
2019-05-18T05:18:08.285Z,93.30
2019-05-18T05:23:11.883Z,92.80
2019-05-18T05:28:15.556Z,92.80
2019-05-18T05:33:19.225Z,92.90
2019-05-18T05:38:22.844Z,92.10
2019-05-18T05:43:26.906Z,92.40
2019-05-18T05:48:30.930Z,92.00
2019-05-18T05:53:34.849Z,91.40
2019-05-18T05:58:38.762Z,91.40
2019-05-18T06:03:42.354Z,91.40
2019-05-18T06:08:45.948Z,91.10
2019-05-18T06:13:49.678Z,90.80
2019-05-18T06:18:53.694Z,91.40
2019-05-18T06:23:57.622Z,90.60
2019-05-18T06:29:01.211Z,90.60
2019-05-18T06:34:04.961Z,90.20
2019-05-18T06:39:09.010Z,88.40
2019-05-18T06:44:12.596Z,89.10
2019-05-18T06:49:16.188Z,88.70
2019-05-18T06:54:19.917Z,87.50
2019-05-18T06:59:24.468Z,85.10
2019-05-18T07:04:28.504Z,85.10
2019-05-18T07:09:35.020Z,84.10
2019-05-18T07:14:38.688Z,83.90
2019-05-18T07:19:42.677Z,83.50
2019-05-18T07:24:46.344Z,83.50
2019-05-18T07:29:49.969Z,83.50
2019-05-18T07:34:53.646Z,81.70
2019-05-18T07:39:57.385Z,83.20
2019-05-18T07:45:01.404Z,81.90
2019-05-18T07:50:06.908Z,79.20
2019-05-18T07:55:10.972Z,80.20
2019-05-18T08:00:15.005Z,80.00
2019-05-18T08:05:18.838Z,78.50
2019-05-18T08:10:25.509Z,76.90
2019-05-18T08:15:29.236Z,78.60
2019-05-18T08:20:33.217Z,77.10
2019-05-18T08:25:36.974Z,76.30
2019-05-18T08:30:40.717Z,76.90
2019-05-18T08:35:44.467Z,74.50
2019-05-18T08:40:48.220Z,73.50
2019-05-18T08:45:51.933Z,75.60
2019-05-18T08:50:57.065Z,73.20
2019-05-18T08:56:00.751Z,73.10
2019-05-18T09:01:04.949Z,71.40
2019-05-18T09:06:08.721Z,72.40
2019-05-18T09:11:12.480Z,70.00
2019-05-18T09:16:16.155Z,69.00
2019-05-18T09:21:19.993Z,69.00
2019-05-18T09:26:23.733Z,69.90
2019-05-18T09:31:27.403Z,69.50
2019-05-18T09:36:31.103Z,67.00
2019-05-18T09:41:36.804Z,69.60
2019-05-18T09:46:40.526Z,67.60
2019-05-18T09:51:44.215Z,67.30
2019-05-18T09:56:47.959Z,67.00
2019-05-18T10:01:51.754Z,66.90
2019-05-18T10:06:55.699Z,67.30
2019-05-18T10:11:59.435Z,65.90
2019-05-18T10:17:03.104Z,64.70
2019-05-18T10:22:06.829Z,63.90
2019-05-18T10:27:10.798Z,64.90
2019-05-18T10:32:14.563Z,63.60
2019-05-18T10:37:18.157Z,63.90
2019-05-18T10:42:21.893Z,65.10
2019-05-18T10:47:25.492Z,63.70
2019-05-18T10:52:29.437Z,64.50
2019-05-18T10:57:33.034Z,64.30
2019-05-18T11:02:36.751Z,64.30
2019-05-18T11:07:40.390Z,63.40
2019-05-18T11:12:44.127Z,62.80
2019-05-18T11:17:47.794Z,64.00
2019-05-18T11:22:51.848Z,63.20
2019-05-18T11:27:55.440Z,62.80
2019-05-18T11:32:59.156Z,64.80
2019-05-18T11:38:03.217Z,63.10
2019-05-18T11:43:07.388Z,64.40
2019-05-18T11:48:11.527Z,64.20
2019-05-18T11:53:15.650Z,63.10
2019-05-18T11:58:19.404Z,60.40
2019-05-18T12:03:23.133Z,60.10
2019-05-18T12:08:27.113Z,61.20
2019-05-18T12:13:30.763Z,63.10
2019-05-18T12:18:34.571Z,61.60
2019-05-18T12:23:38.292Z,62.20
2019-05-18T12:28:41.889Z,61.00
2019-05-18T12:33:45.512Z,61.10
2019-05-18T12:38:49.100Z,62.30
2019-05-18T12:43:52.678Z,64.80
2019-05-18T12:48:56.294Z,66.10
2019-05-18T12:53:59.907Z,66.80
2019-05-18T12:59:03.660Z,69.60
2019-05-18T13:04:07.416Z,73.30
2019-05-18T13:09:11.013Z,77.80
2019-05-18T13:14:15.052Z,82.70
2019-05-18T13:19:18.700Z,86.60
2019-05-18T13:24:22.305Z,88.40
2019-05-18T13:29:25.979Z,91.40
2019-05-18T13:34:29.576Z,91.00
2019-05-18T13:39:33.265Z,91.20
2019-05-18T13:44:38.205Z,93.40
2019-05-18T13:49:41.972Z,93.20
2019-05-18T13:55:01.936Z,91.20
2019-05-18T13:59:50.933Z,91.50
2019-05-18T14:04:54.677Z,91.10
2019-05-18T14:09:58.340Z,91.40
2019-05-18T14:15:02.016Z,92.70
2019-05-18T14:20:06.167Z,90.70
2019-05-18T14:25:19.468Z,91.50
2019-05-18T14:30:16.791Z,90.40
2019-05-18T14:35:20.586Z,90.10
2019-05-18T14:40:24.480Z,88.40
2019-05-18T14:45:28.235Z,83.30
2019-05-18T14:50:31.983Z,84.70
2019-05-18T14:55:35.707Z,83.80
2019-05-18T15:00:39.543Z,84.40
2019-05-18T15:05:43.196Z,82.40
2019-05-18T15:10:47.042Z,79.80
2019-05-18T15:15:51.154Z,82.60
2019-05-18T15:20:55.602Z,80.80
2019-05-18T15:25:59.359Z,80.60
2019-05-18T15:31:02.990Z,77.80
2019-05-18T15:36:06.708Z,77.90
2019-05-18T15:41:10.465Z,72.80
2019-05-18T15:46:14.142Z,77.20
2019-05-18T15:51:17.827Z,78.20
2019-05-18T15:56:21.805Z,78.70
2019-05-18T16:01:25.490Z,80.10
2019-05-18T16:06:29.209Z,81.30
2019-05-18T16:11:33.189Z,78.90
2019-05-18T16:16:37.279Z,81.70
2019-05-18T16:21:41.423Z,81.50
2019-05-18T16:26:45.006Z,79.10
2019-05-18T16:31:48.659Z,81.90
2019-05-18T16:36:52.669Z,81.20
2019-05-18T16:41:56.404Z,80.60
2019-05-18T16:47:00.344Z,80.30
2019-05-18T16:52:04.226Z,82.50
2019-05-18T16:57:09.369Z,85.00
2019-05-18T17:02:13.495Z,86.00
2019-05-18T17:07:17.173Z,82.90
2019-05-18T17:12:21.185Z,81.70
2019-05-18T17:17:27.836Z,84.00
2019-05-18T17:22:31.503Z,82.00
2019-05-18T17:27:35.096Z,81.30
2019-05-18T17:32:38.737Z,89.10
2019-05-18T17:37:42.799Z,90.70
2019-05-18T17:42:46.487Z,90.40
2019-05-18T17:47:50.079Z,90.40
2019-05-18T17:52:54.197Z,90.20
2019-05-18T17:57:57.803Z,90.60
2019-05-18T18:03:01.472Z,90.80
2019-05-18T18:08:05.598Z,90.00
2019-05-18T18:13:09.686Z,90.50
2019-05-18T18:18:13.530Z,91.30
2019-05-18T18:23:18.554Z,92.00
2019-05-18T18:28:22.658Z,91.50
2019-05-18T18:33:26.693Z,92.30
2019-05-18T18:38:30.274Z,93.00
2019-05-18T18:43:34.200Z,92.90
2019-05-18T18:48:38.289Z,94.10
2019-05-18T18:53:41.880Z,94.50
2019-05-18T18:58:45.561Z,95.10
2019-05-18T19:04:08.565Z,94.40
2019-05-18T19:09:12.223Z,94.90
2019-05-18T19:14:16.352Z,95.00
2019-05-18T19:19:19.936Z,94.50
2019-05-18T19:24:23.684Z,95.40
2019-05-18T19:29:27.407Z,95.10
2019-05-18T19:34:32.342Z,96.20
2019-05-18T19:39:36.046Z,95.70
2019-05-18T19:44:39.720Z,96.40
2019-05-18T19:49:43.312Z,95.60
2019-05-18T19:54:47.060Z,96.00
2019-05-18T20:00:10.224Z,96.40
2019-05-18T20:05:14.392Z,96.70
2019-05-18T20:10:18.225Z,96.70
2019-05-18T20:15:21.975Z,96.80
2019-05-18T20:20:25.660Z,96.60
2019-05-18T20:25:29.325Z,96.80
2019-05-18T20:30:33.049Z,97.20
2019-05-18T20:35:37.196Z,97.10
2019-05-18T20:40:41.141Z,97.30
2019-05-18T20:45:45.185Z,97.60
2019-05-18T20:50:48.901Z,97.70
2019-05-18T20:55:52.506Z,97.50
2019-05-18T21:00:56.161Z,98.20
2019-05-18T21:05:59.886Z,98.10
2019-05-18T21:11:04.227Z,98.00
2019-05-18T21:16:07.889Z,97.90
2019-05-18T21:21:11.488Z,98.40
2019-05-18T21:26:15.957Z,97.90
2019-05-18T21:31:19.669Z,98.10
2019-05-18T21:36:23.254Z,97.90
2019-05-18T21:41:27.267Z,98.20
2019-05-18T21:46:30.944Z,98.00
2019-05-18T21:51:34.924Z,98.60
2019-05-18T21:56:38.864Z,98.20
2019-05-18T22:01:42.514Z,98.50
2019-05-18T22:06:46.176Z,98.60
2019-05-18T22:11:50.235Z,98.80
2019-05-18T22:16:54.196Z,98.60
2019-05-18T22:21:57.844Z,98.60
2019-05-18T22:27:01.465Z,98.60
2019-05-18T22:32:05.653Z,99.00
2019-05-18T22:37:09.391Z,98.90
2019-05-18T22:42:13.469Z,98.50
2019-05-18T22:47:17.551Z,98.60
2019-05-18T22:52:21.479Z,99.20
2019-05-18T22:57:25.093Z,99.00
2019-05-18T23:02:29.747Z,99.00
2019-05-18T23:07:33.831Z,99.00
2019-05-18T23:12:37.736Z,98.60
2019-05-18T23:17:41.347Z,99.30
2019-05-18T23:22:45.348Z,99.90
2019-05-18T23:27:49.378Z,99.90
2019-05-18T23:32:52.982Z,99.90
2019-05-18T23:37:56.736Z,99.90
2019-05-18T23:43:00.411Z,99.90
2019-05-18T23:48:04.198Z,99.90
2019-05-18T23:53:07.915Z,99.90
2019-05-18T23:58:11.502Z,99.90
